Time;durP1;ratioP1;P1;durP2;ratioP2;P2;SDS_P1;SDS_P2;PMS_P1;PMS_P2;Temp;Humidity;BMP_temperature;BMP_pressure;BME280_temperature;BME280_humidity;BME280_pressure;Samples;Min_cycle;Max_cycle;Signal;HPM_P1;HPM_P2
2023/06/18 00:02:12;;;;;;;17.10;11.32;;;;;;;18.55;100.00;101231.31;5202239;28;20037;-69
2023/06/18 00:04:42;;;;;;;15.88;11.40;;;;;;;18.47;100.00;101228.81;5202251;28;20034;-69
2023/06/18 00:07:13;;;;;;;23.67;11.90;;;;;;;18.41;100.00;101229.66;5205013;28;20490;-69
2023/06/18 00:09:43;;;;;;;18.70;11.40;;;;;;;18.37;100.00;101224.66;5206256;28;20033;-69
2023/06/18 00:12:14;;;;;;;15.60;10.85;;;;;;;18.40;100.00;101230.69;5206275;28;20455;-69
2023/06/18 00:14:44;;;;;;;19.52;11.23;;;;;;;18.38;100.00;101222.75;5205979;28;20036;-69
2023/06/18 00:17:15;;;;;;;17.77;11.88;;;;;;;18.34;100.00;101222.34;5205339;28;20159;-69
2023/06/18 00:19:45;;;;;;;15.07;11.25;;;;;;;18.33;100.00;101211.69;5206227;28;20111;-69
2023/06/18 00:22:16;;;;;;;19.13;11.73;;;;;;;18.28;100.00;101215.03;5205914;28;20021;-69
2023/06/18 00:24:46;;;;;;;14.60;10.40;;;;;;;18.26;100.00;101208.13;5205922;28;20040;-69
2023/06/18 00:27:16;;;;;;;18.25;11.75;;;;;;;18.22;100.00;101213.13;5205038;28;20090;-69
2023/06/18 00:29:47;;;;;;;15.88;10.88;;;;;;;18.19;100.00;101207.28;5205985;28;20116;-69
2023/06/18 00:32:17;;;;;;;12.93;10.75;;;;;;;18.17;100.00;101210.19;5205983;28;20386;-69
2023/06/18 00:34:48;;;;;;;18.65;11.77;;;;;;;18.18;100.00;101209.16;5205686;28;20021;-69
2023/06/18 00:37:20;;;;;;;18.85;11.48;;;;;;;18.09;100.00;101215.84;5205108;28;20048;-69
2023/06/18 00:39:50;;;;;;;20.65;11.85;;;;;;;18.03;100.00;101216.66;5218969;28;20021;-69
2023/06/18 00:42:21;;;;;;;19.20;11.55;;;;;;;17.95;100.00;101208.72;5205953;28;20117;-69
2023/06/18 00:44:52;;;;;;;16.83;11.30;;;;;;;17.93;100.00;101205.38;5205603;28;20029;-69
2023/06/18 00:47:23;;;;;;;22.33;12.43;;;;;;;17.89;100.00;101210.38;5205196;28;20037;-69
2023/06/18 00:49:55;;;;;;;21.40;11.40;;;;;;;17.88;100.00;101206.00;5205291;28;20026;-69
2023/06/18 00:52:27;;;;;;;26.67;13.02;;;;;;;17.84;100.00;101202.84;5205601;28;20044;-69
2023/06/18 00:54:57;;;;;;;17.65;12.38;;;;;;;17.79;100.00;101199.91;5205592;28;20025;-69
2023/06/18 00:57:29;;;;;;;20.65;12.32;;;;;;;17.74;100.00;101207.84;5204662;28;20032;-69
2023/06/18 01:00:04;;;;;;;16.95;11.70;;;;;;;17.69;100.00;101204.03;5205340;28;20030;-69
2023/06/18 01:02:34;;;;;;;21.75;13.30;;;;;;;17.58;100.00;101206.28;5205326;28;20037;-69
2023/06/18 01:05:09;;;;;;;19.27;13.27;;;;;;;17.48;100.00;101197.69;5205607;28;20022;-69
2023/06/18 01:07:41;;;;;;;18.30;12.87;;;;;;;17.39;100.00;101203.50;5204653;28;20037;-69
2023/06/18 01:10:14;;;;;;;18.02;13.07;;;;;;;17.34;100.00;101194.09;5205332;28;20033;-69
2023/06/18 01:12:48;;;;;;;16.58;11.45;;;;;;;17.33;100.00;101197.03;5205054;28;20112;-69
2023/06/18 01:15:19;;;;;;;17.92;12.65;;;;;;;17.33;100.00;101194.31;5204930;28;20025;-69
2023/06/18 01:17:49;;;;;;;20.45;12.48;;;;;;;17.31;100.00;101191.78;5204051;28;20498;-69
2023/06/18 01:20:21;;;;;;;17.85;12.65;;;;;;;17.29;100.00;101185.72;5204865;28;20021;-69
2023/06/18 01:23:21;;;;;;;18.23;12.15;;;;;;;17.25;100.00;101189.03;5203948;28;20053;-69
2023/06/18 01:26:04;;;;;;;20.88;13.05;;;;;;;17.20;100.00;101183.38;5204680;28;20497;-69
2023/06/18 01:28:35;;;;;;;16.58;11.20;;;;;;;17.19;100.00;101179.00;5204847;28;20510;-69
2023/06/18 01:31:06;;;;;;;18.15;11.30;;;;;;;17.16;100.00;101169.41;5205082;28;20033;-69
2023/06/18 01:33:36;;;;;;;19.52;10.80;;;;;;;17.15;100.00;101175.84;5204381;28;20018;-69
2023/06/18 01:36:10;;;;;;;17.33;11.77;;;;;;;17.16;100.00;101177.53;5204340;28;20075;-69
2023/06/18 01:38:46;;;;;;;16.98;11.32;;;;;;;17.15;100.00;101178.56;5204565;28;20021;-69
2023/06/18 01:41:24;;;;;;;24.40;11.50;;;;;;;17.10;100.00;101172.91;5204552;28;20040;-69
2023/06/18 01:44:01;;;;;;;17.52;12.25;;;;;;;17.05;100.00;101175.41;5204698;28;20218;-69
2023/06/18 01:46:32;;;;;;;21.80;12.18;;;;;;;17.00;100.00;101180.59;5203868;28;20090;-69
2023/06/18 01:49:04;;;;;;;19.08;12.13;;;;;;;16.96;100.00;101179.31;5204323;28;20475;-69
2023/06/18 01:51:37;;;;;;;15.13;11.73;;;;;;;16.94;100.00;101175.97;5204387;28;20494;-69
2023/06/18 01:54:09;;;;;;;17.10;12.10;;;;;;;16.90;100.00;101170.09;5204412;28;20479;-69
2023/06/18 01:56:49;;;;;;;16.52;11.27;;;;;;;16.87;100.00;101165.09;5203613;28;20040;-69
2023/06/18 01:59:26;;;;;;;17.23;11.30;;;;;;;16.85;100.00;101161.75;5204308;28;20090;-69
2023/06/18 02:01:56;;;;;;;19.83;12.18;;;;;;;16.88;100.00;101163.22;5204330;28;20368;-69
2023/06/18 02:04:27;;;;;;;18.55;11.88;;;;;;;16.85;100.00;101148.19;5204125;28;20112;-69
2023/06/18 02:06:59;;;;;;;15.75;10.57;;;;;;;16.85;100.00;101153.59;5202946;28;20383;-69
2023/06/18 02:09:30;;;;;;;17.92;10.70;;;;;;;16.83;100.00;101150.28;5204204;28;20014;-69
2023/06/18 02:12:00;;;;;;;17.88;10.45;;;;;;;16.84;100.00;101146.53;5203952;28;20037;-69
2023/06/18 02:14:31;;;;;;;18.70;10.65;;;;;;;16.86;100.00;101147.16;5204279;28;20113;-69
2023/06/18 02:17:02;;;;;;;16.23;10.18;;;;;;;16.90;100.00;101153.84;5202929;28;20037;-69
2023/06/18 02:19:32;;;;;;;19.15;10.23;;;;;;;16.93;100.00;101147.19;5203634;28;20033;-69
2023/06/18 02:22:03;;;;;;;18.67;11.57;;;;;;;16.94;100.00;101148.88;5203387;28;20025;-69
2023/06/18 02:24:34;;;;;;;19.98;13.00;;;;;;;16.91;100.00;101143.84;5204025;28;20048;-69
2023/06/18 02:27:05;;;;;;;19.35;11.90;;;;;;;16.83;100.00;101145.69;5203052;28;20087;-69
2023/06/18 02:29:35;;;;;;;16.35;11.73;;;;;;;16.79;100.00;101149.81;5203345;28;20017;-69
2023/06/18 02:32:06;;;;;;;19.92;12.13;;;;;;;16.72;100.00;101143.53;5203618;28;20024;-69
2023/06/18 02:34:37;;;;;;;12.57;10.65;;;;;;;16.70;100.00;101147.44;5203451;28;20025;-69
2023/06/18 02:37:08;;;;;;;23.50;11.48;;;;;;;16.69;100.00;101143.06;5203194;28;20379;-69
2023/06/18 02:39:38;;;;;;;16.65;10.82;;;;;;;16.66;100.00;101144.28;5203576;28;20025;-69
2023/06/18 02:42:09;;;;;;;20.83;12.32;;;;;;;16.65;100.00;101148.03;5203622;28;20142;-69
2023/06/18 02:44:42;;;;;;;16.05;11.00;;;;;;;16.66;100.00;101151.59;5203199;28;20033;-69
2023/06/18 02:47:12;;;;;;;18.67;12.18;;;;;;;16.63;100.00;101150.13;5202811;28;20060;-69
2023/06/18 02:49:43;;;;;;;16.48;12.00;;;;;;;16.61;100.00;101167.59;5203297;28;20482;-69
2023/06/18 02:52:13;;;;;;;16.30;11.82;;;;;;;16.56;100.00;101165.47;5203660;28;20450;-69
2023/06/18 02:54:44;;;;;;;19.30;12.80;;;;;;;16.53;100.00;101155.06;5203278;28;20426;-69
2023/06/18 02:57:14;;;;;;;15.52;12.32;;;;;;;16.46;100.00;101157.69;5202630;28;20511;-69
2023/06/18 02:59:45;;;;;;;18.33;12.55;;;;;;;16.45;100.00;101157.91;5203260;28;20033;-69
2023/06/18 03:02:16;;;;;;;16.45;12.20;;;;;;;16.41;100.00;101153.91;5203392;28;20527;-69
2023/06/18 03:04:47;;;;;;;16.42;12.73;;;;;;;16.33;100.00;101152.19;5203253;28;20112;-69
2023/06/18 03:07:17;;;;;;;17.50;12.20;;;;;;;16.32;100.00;101155.94;5202343;28;20021;-69
2023/06/18 03:09:48;;;;;;;19.17;12.27;;;;;;;16.26;100.00;101152.13;5203176;28;20032;-69
2023/06/18 03:12:19;;;;;;;17.85;12.27;;;;;;;16.22;100.00;101158.16;5202960;28;20032;-69
2023/06/18 03:14:50;;;;;;;19.08;12.57;;;;;;;16.19;100.00;101147.72;5203072;28;20025;-69
2023/06/18 03:17:21;;;;;;;23.80;11.93;;;;;;;16.19;100.00;101153.13;5202118;28;20017;-69
2023/06/18 03:19:51;;;;;;;18.48;12.35;;;;;;;16.14;100.00;101147.47;5202687;28;20025;-69
2023/06/18 03:22:22;;;;;;;19.45;11.75;;;;;;;16.10;100.00;101149.72;5202829;28;20036;-69
2023/06/18 03:24:53;;;;;;;19.25;11.48;;;;;;;16.08;100.00;101143.66;5203056;28;20398;-69
2023/06/18 03:27:24;;;;;;;24.20;11.63;;;;;;;16.05;100.00;101139.47;5202354;28;20446;-69
2023/06/18 03:29:55;;;;;;;21.90;12.63;;;;;;;16.04;100.00;101139.69;5203022;28;20475;-69
2023/06/18 03:32:26;;;;;;;16.55;11.52;;;;;;;16.06;100.00;101143.00;5202966;28;20033;-69
2023/06/18 03:34:57;;;;;;;16.42;11.60;;;;;;;16.07;100.00;101141.16;5202762;28;20025;-69
2023/06/18 03:37:28;;;;;;;18.58;12.18;;;;;;;16.10;100.00;101138.88;5202573;28;20025;-69
2023/06/18 03:39:59;;;;;;;20.20;12.48;;;;;;;16.12;100.00;101146.84;5204178;28;20028;-69
2023/06/18 03:42:29;;;;;;;23.95;12.30;;;;;;;16.12;100.00;101142.25;5207279;28;20071;-69
2023/06/18 03:45:01;;;;;;;18.27;12.82;;;;;;;16.12;100.00;101142.25;5206590;28;20025;-69
2023/06/18 03:47:32;;;;;;;18.02;12.48;;;;;;;16.13;100.00;101143.09;5206334;28;20037;-69
2023/06/18 03:50:03;;;;;;;23.70;13.20;;;;;;;16.11;100.00;101145.97;5206880;28;20104;-69
2023/06/18 03:52:34;;;;;;;17.13;12.05;;;;;;;16.10;100.00;101155.13;5206907;28;20033;-69
2023/06/18 03:55:05;;;;;;;18.77;12.02;;;;;;;16.12;100.00;101155.78;5207212;28;20021;-69
2023/06/18 03:57:35;;;;;;;17.20;11.55;;;;;;;16.17;100.00;101163.31;5206378;28;20021;-69
2023/06/18 04:00:08;;;;;;;17.02;12.05;;;;;;;16.19;100.00;101162.09;5206873;28;20121;-69
2023/06/18 04:02:40;;;;;;;24.85;12.75;;;;;;;16.22;100.00;101156.28;5206800;28;20068;-69
2023/06/18 04:05:12;;;;;;;23.15;12.77;;;;;;;16.26;100.00;101162.97;5206587;28;20044;-69
2023/06/18 04:07:42;;;;;;;18.42;11.57;;;;;;;16.34;100.00;101170.13;5205821;28;20030;-69
2023/06/18 04:10:13;;;;;;;18.55;11.82;;;;;;;16.37;100.00;101168.91;5206353;28;20033;-69
2023/06/18 04:12:43;;;;;;;16.50;12.05;;;;;;;16.40;100.00;101163.91;5206656;28;20061;-69
2023/06/18 04:15:14;;;;;;;23.42;12.05;;;;;;;16.47;100.00;101162.09;5206378;28;20021;-69
2023/06/18 04:17:44;;;;;;;15.20;11.60;;;;;;;16.58;100.00;101172.38;5205591;28;20025;-69
2023/06/18 04:20:15;;;;;;;15.82;11.00;;;;;;;16.69;100.00;101170.16;5206069;28;20021;-69
2023/06/18 04:22:45;;;;;;;15.20;11.95;;;;;;;16.78;100.00;101169.00;5206286;28;20027;-69
2023/06/18 04:25:16;;;;;;;19.33;11.40;;;;;;;16.89;100.00;101175.72;5206172;28;20104;-69
2023/06/18 04:27:46;;;;;;;19.65;12.13;;;;;;;17.00;100.00;101172.44;5204398;28;20498;-69
2023/06/18 04:30:17;;;;;;;26.35;13.00;;;;;;;17.08;100.00;101169.59;5206130;28;20033;-69
2023/06/18 04:32:48;;;;;;;18.90;12.13;;;;;;;17.16;100.00;101172.09;5205829;28;20028;-69
2023/06/18 04:35:19;;;;;;;26.63;12.23;;;;;;;17.21;100.00;101172.34;5205850;28;20029;-69
2023/06/18 04:37:49;;;;;;;18.13;11.38;;;;;;;17.28;100.00;101177.81;5205659;28;20017;-69
2023/06/18 04:40:21;;;;;;;16.77;12.20;;;;;;;17.36;100.00;101172.19;5205909;28;20025;-69
2023/06/18 04:42:52;;;;;;;19.17;11.38;;;;;;;17.47;100.00;101170.75;5205986;28;20044;-69
2023/06/18 04:45:22;;;;;;;20.40;11.52;;;;;;;17.54;100.00;101179.78;5204517;28;20101;-69
2023/06/18 04:47:53;;;;;;;21.67;11.73;;;;;;;17.58;100.00;101186.47;5204073;28;20053;-69
2023/06/18 04:50:24;;;;;;;19.90;11.77;;;;;;;17.63;100.00;101183.97;5205952;28;20395;-69
2023/06/18 04:52:54;;;;;;;21.70;11.45;;;;;;;17.68;100.00;101196.94;5205119;28;20037;-69
2023/06/18 04:55:25;;;;;;;19.38;10.70;;;;;;;17.76;100.00;101213.88;5196048;28;20372;-70
2023/06/18 04:57:56;;;;;;;15.40;10.40;;;;;;;17.76;100.00;101279.00;5204316;28;20104;-70
2023/06/18 05:00:27;;;;;;;17.15;10.25;;;;;;;17.71;100.00;101256.19;5205329;28;20099;-69
2023/06/18 05:02:57;;;;;;;17.75;10.82;;;;;;;17.74;100.00;101240.41;5218862;28;20036;-69
2023/06/18 05:05:28;;;;;;;17.75;10.23;;;;;;;17.78;100.00;101263.38;5205387;28;20017;-69
2023/06/18 05:07:58;;;;;;;13.18;8.70;;;;;;;17.81;100.00;101270.25;5205117;28;20026;-69
2023/06/18 05:10:29;;;;;;;14.73;11.07;;;;;;;17.84;100.00;101276.13;5206927;28;20144;-69
2023/06/18 05:12:59;;;;;;;15.35;9.98;;;;;;;17.89;100.00;101282.81;5205642;28;20033;-69
2023/06/18 05:15:30;;;;;;;12.45;9.70;;;;;;;17.91;100.00;101288.88;5205298;28;20199;-69
2023/06/18 05:18:00;;;;;;;19.92;9.75;;;;;;;17.93;100.00;101287.66;5204649;28;20058;-69
2023/06/18 05:20:31;;;;;;;15.48;9.57;;;;;;;17.95;100.00;101287.44;5205185;28;20063;-69
2023/06/18 05:23:01;;;;;;;15.38;9.90;;;;;;;17.98;100.00;101289.75;5204893;28;20039;-70
2023/06/18 05:25:34;;;;;;;17.25;9.23;;;;;;;17.98;100.00;101290.59;5204885;28;20091;-69
2023/06/18 05:28:05;;;;;;;14.55;9.38;;;;;;;18.02;100.00;101290.97;5204738;28;20045;-69
2023/06/18 05:30:35;;;;;;;16.88;10.02;;;;;;;18.03;100.00;101287.25;5204995;28;20368;-69
2023/06/18 05:33:06;;;;;;;16.98;9.50;;;;;;;18.06;100.00;101274.09;5204881;28;20029;-69
2023/06/18 05:35:36;;;;;;;13.57;9.63;;;;;;;18.11;100.00;101279.75;5204561;28;20613;-70
2023/06/18 05:38:07;;;;;;;11.52;8.57;;;;;;;18.15;100.00;101282.88;5204657;28;20030;-69
2023/06/18 05:40:37;;;;;;;12.00;9.23;;;;;;;18.24;100.00;101289.81;5204831;28;20021;-69
2023/06/18 05:43:08;;;;;;;18.33;8.80;;;;;;;18.27;100.00;101283.97;5204849;28;20079;-69
2023/06/18 05:45:38;;;;;;;13.93;9.23;;;;;;;18.34;100.00;101281.25;5204138;28;20462;-70
2023/06/18 05:48:09;;;;;;;16.10;9.98;;;;;;;18.36;100.00;101277.28;5204026;28;20101;-69
2023/06/18 05:50:41;;;;;;;16.40;9.23;;;;;;;18.34;100.00;101273.09;5204655;28;20025;-69
2023/06/18 05:53:12;;;;;;;13.43;9.73;;;;;;;18.33;100.00;101277.72;5204681;28;20479;-69
2023/06/18 05:55:42;;;;;;;12.27;9.05;;;;;;;18.35;100.00;101286.47;5204091;28;20036;-69
2023/06/18 05:58:12;;;;;;;13.20;8.90;;;;;;;18.40;100.00;101279.59;5204140;28;20036;-70
2023/06/18 06:00:43;;;;;;;18.13;10.15;;;;;;;18.37;100.00;101286.25;5203408;28;20021;-69
2023/06/18 06:03:13;;;;;;;20.52;10.95;;;;;;;18.30;100.00;101288.97;5203540;28;20544;-70
2023/06/18 06:05:44;;;;;;;21.35;11.23;;;;;;;18.30;100.00;101285.41;5203814;28;20021;-70
2023/06/18 06:08:14;;;;;;;20.20;10.70;;;;;;;18.32;100.00;101284.19;5204249;28;20651;-70
2023/06/18 06:10:45;;;;;;;18.27;11.20;;;;;;;18.35;100.00;101281.03;5203930;28;20750;-70
2023/06/18 06:13:15;;;;;;;17.95;10.57;;;;;;;18.43;100.00;101282.75;5204350;28;20445;-70
2023/06/18 06:15:46;;;;;;;17.10;10.48;;;;;;;18.54;100.00;101278.56;5203467;28;20021;-70
2023/06/18 06:18:16;;;;;;;18.42;11.10;;;;;;;18.64;100.00;101287.13;5203908;28;20028;-70
2023/06/18 06:20:47;;;;;;;13.43;10.27;;;;;;;18.74;100.00;101284.03;5204000;28;20079;-70
2023/06/18 06:23:17;;;;;;;17.00;11.32;;;;;;;18.81;100.00;101291.13;5203586;28;20036;-70
2023/06/18 06:25:48;;;;;;;16.20;10.50;;;;;;;18.94;100.00;101297.63;5203803;28;20033;-70
2023/06/18 06:28:18;;;;;;;14.38;9.95;;;;;;;19.02;100.00;101284.63;5203820;28;20026;-70
2023/06/18 06:30:49;;;;;;;18.95;10.35;;;;;;;19.19;100.00;101285.03;5203935;28;20071;-70
2023/06/18 06:33:19;;;;;;;14.85;10.05;;;;;;;19.42;100.00;101289.97;5203829;28;20493;-70
2023/06/18 06:35:50;;;;;;;14.73;9.95;;;;;;;19.72;100.00;101294.94;5202909;28;20053;-70
2023/06/18 06:38:21;;;;;;;14.77;9.38;;;;;;;20.06;100.00;101299.16;5203640;28;20025;-70
2023/06/18 06:40:51;;;;;;;12.77;9.40;;;;;;;20.33;100.00;101287.06;5203805;28;20036;-70
2023/06/18 06:43:22;;;;;;;15.38;8.65;;;;;;;20.56;100.00;101293.84;5203578;28;20036;-70
2023/06/18 06:45:52;;;;;;;13.52;9.45;;;;;;;20.76;100.00;101283.59;5202635;28;20025;-70
2023/06/18 06:48:23;;;;;;;14.60;8.43;;;;;;;20.97;100.00;101285.09;5202656;28;20455;-70
2023/06/18 06:50:53;;;;;;;13.30;9.30;;;;;;;21.12;100.00;101284.75;5203225;28;20025;-70
2023/06/18 06:53:24;;;;;;;13.50;9.15;;;;;;;21.27;100.00;101285.22;5203353;28;20478;-70
2023/06/18 06:55:54;;;;;;;12.32;8.13;;;;;;;21.44;100.00;101286.31;5202399;28;20109;-70
2023/06/18 06:58:24;;;;;;;15.25;8.90;;;;;;;21.61;100.00;101285.72;5203037;28;20033;-70
2023/06/18 07:00:55;;;;;;;11.07;8.30;;;;;;;21.67;100.00;101287.50;5202580;28;20385;-70
2023/06/18 07:03:25;;;;;;;10.82;7.93;;;;;;;21.75;100.00;101289.94;5203275;28;20017;-70
2023/06/18 07:05:56;;;;;;;13.13;9.15;;;;;;;21.82;100.00;101289.84;5202427;28;20537;-70
2023/06/18 07:08:26;;;;;;;13.85;8.32;;;;;;;21.82;100.00;101287.13;5203084;28;20532;-70
2023/06/18 07:10:57;;;;;;;14.90;7.63;;;;;;;21.80;100.00;101295.56;5202788;28;20021;-70
2023/06/18 07:13:27;;;;;;;15.18;7.53;;;;;;;21.75;100.00;101292.69;5202540;28;20035;-70
2023/06/18 07:15:58;;;;;;;12.45;8.18;;;;;;;21.66;100.00;101288.59;5200863;28;20021;-70
2023/06/18 07:18:28;;;;;;;14.93;8.55;;;;;;;21.52;100.00;101282.44;5202510;28;20017;-70
2023/06/18 07:20:59;;;;;;;11.65;8.32;;;;;;;21.46;100.00;101289.66;5202832;28;20036;-70
2023/06/18 07:23:29;;;;;;;14.27;8.25;;;;;;;21.38;100.00;101292.66;5202503;28;20479;-70
2023/06/18 07:26:00;;;;;;;12.80;9.05;;;;;;;21.32;100.00;101290.03;5202026;28;20036;-70
2023/06/18 07:28:30;;;;;;;14.13;9.07;;;;;;;21.25;100.00;101287.34;5202483;28;20431;-70
2023/06/18 07:31:01;;;;;;;15.13;9.02;;;;;;;21.22;100.00;101290.50;5202734;28;20026;-70
2023/06/18 07:33:32;;;;;;;13.50;8.55;;;;;;;21.20;100.00;101295.38;5202725;28;20025;-70
2023/06/18 07:36:02;;;;;;;11.98;8.57;;;;;;;21.15;100.00;101287.03;5201863;28;20032;-70
2023/06/18 07:38:33;;;;;;;15.20;9.63;;;;;;;21.12;100.00;101290.19;5202521;28;20433;-70
2023/06/18 07:41:03;;;;;;;19.23;9.63;;;;;;;21.11;100.00;101285.81;5202674;28;20092;-70
2023/06/18 07:43:34;;;;;;;13.60;9.40;;;;;;;21.05;100.00;101281.25;5215978;28;20072;-70
2023/06/18 07:46:04;;;;;;;16.33;9.70;;;;;;;20.98;100.00;101272.28;5202189;28;20037;-71
2023/06/18 07:48:35;;;;;;;18.38;10.07;;;;;;;20.97;100.00;101284.25;5202155;28;20136;-70
2023/06/18 07:51:06;;;;;;;11.80;9.85;;;;;;;20.93;100.00;101272.97;5202464;28;20509;-70
2023/06/18 07:53:36;;;;;;;13.55;9.70;;;;;;;20.86;100.00;101281.22;5202595;28;20029;-70
2023/06/18 07:56:07;;;;;;;17.88;11.10;;;;;;;20.83;100.00;101281.66;5201902;28;20532;-70
2023/06/18 07:58:37;;;;;;;14.13;9.85;;;;;;;20.74;100.00;101277.56;5202438;28;20025;-70
2023/06/18 08:01:08;;;;;;;13.35;10.00;;;;;;;20.75;100.00;101281.13;5202024;28;20087;-70
2023/06/18 08:03:38;;;;;;;16.52;10.60;;;;;;;20.75;100.00;101271.03;5202550;28;20375;-70
2023/06/18 08:06:09;;;;;;;14.52;11.35;;;;;;;20.78;100.00;101270.56;5207400;28;20027;-70
2023/06/18 08:08:39;;;;;;;17.00;11.35;;;;;;;20.77;100.00;101271.63;5210148;28;20030;-71
2023/06/18 08:11:10;;;;;;;17.30;9.85;;;;;;;20.71;100.00;101271.72;5202290;28;20033;-71
2023/06/18 08:13:40;;;;;;;19.02;11.27;;;;;;;20.65;100.00;101265.25;5201865;28;20025;-71
2023/06/18 08:16:11;;;;;;;18.70;9.98;;;;;;;20.61;100.00;101270.31;5201763;28;20056;-71
2023/06/18 08:18:42;;;;;;;16.35;11.25;;;;;;;20.60;100.00;101263.19;5202090;28;20029;-71
2023/06/18 08:21:12;;;;;;;15.00;11.02;;;;;;;20.60;100.00;101260.47;5202279;28;20026;-71
2023/06/18 08:23:43;;;;;;;16.25;10.77;;;;;;;20.60;100.00;101262.38;5201966;28;20032;-71
2023/06/18 08:26:14;;;;;;;15.52;11.10;;;;;;;20.58;100.00;101242.66;5201631;28;20025;-71
2023/06/18 08:28:45;;;;;;;13.52;10.13;;;;;;;20.62;100.00;101244.72;5205641;28;20498;-71
2023/06/18 08:31:16;;;;;;;16.23;11.00;;;;;;;20.65;100.00;101235.28;5206190;28;20052;-71
2023/06/18 08:33:48;;;;;;;17.15;9.93;;;;;;;20.68;100.00;101226.63;5205932;28;20060;-71
2023/06/18 08:36:21;;;;;;;11.65;9.95;;;;;;;20.78;100.00;101229.69;5205256;28;20030;-71
2023/06/18 08:38:51;;;;;;;13.70;10.43;;;;;;;20.84;100.00;101228.81;5205628;28;20764;-71
2023/06/18 08:41:22;;;;;;;16.98;10.05;;;;;;;20.89;100.00;101220.78;5205563;28;20028;-71
2023/06/18 08:43:53;;;;;;;16.67;10.25;;;;;;;21.03;100.00;101216.00;5205885;28;20487;-71
2023/06/18 08:46:26;;;;;;;14.60;9.57;;;;;;;21.19;100.00;101220.03;5205266;28;20026;-71
2023/06/18 08:48:59;;;;;;;16.55;10.02;;;;;;;21.33;100.00;101213.38;5205323;28;20032;-70
2023/06/18 08:51:31;;;;;;;14.80;9.05;;;;;;;21.43;100.00;101218.31;5205520;28;20486;-70
2023/06/18 08:54:03;;;;;;;10.68;9.07;;;;;;;21.50;100.00;101220.97;5205537;28;20025;-71
2023/06/18 08:56:42;;;;;;;13.55;8.75;;;;;;;21.58;100.00;101221.47;5204896;28;20048;-71
2023/06/18 08:59:13;;;;;;;11.88;9.20;;;;;;;21.69;100.00;101228.91;5205491;28;20029;-71
2023/06/18 09:01:45;;;;;;;12.07;9.57;;;;;;;21.85;100.00;101221.94;5205211;28;20033;-71
2023/06/18 09:04:17;;;;;;;9.93;8.20;;;;;;;21.96;100.00;101223.88;5205524;28;20017;-71
2023/06/18 09:06:48;;;;;;;10.45;7.93;;;;;;;22.09;100.00;101220.13;5204639;28;20123;-71
2023/06/18 09:09:19;;;;;;;14.38;8.25;;;;;;;22.23;100.00;101223.50;5205450;28;20076;-71
2023/06/18 09:11:50;;;;;;;11.57;8.35;;;;;;;22.42;100.00;101230.56;5205044;28;20063;-71
2023/06/18 09:14:21;;;;;;;10.18;8.10;;;;;;;22.56;100.00;101233.09;5205066;28;20021;-71
2023/06/18 09:16:54;;;;;;;10.05;7.72;;;;;;;22.64;100.00;101225.38;5204347;28;20055;-71
2023/06/18 09:19:24;;;;;;;11.65;7.32;;;;;;;22.54;100.00;101237.94;5205238;28;20079;-71
2023/06/18 09:21:55;;;;;;;7.35;6.32;;;;;;;22.25;100.00;101246.00;5204739;28;20394;-71
2023/06/18 09:24:26;;;;;;;9.50;7.63;;;;;;;22.10;100.00;101240.09;5204663;28;20017;-71
2023/06/18 09:27:12;;;;;;;12.45;7.63;;;;;;;21.92;100.00;101233.59;5204103;28;20025;-71
2023/06/18 09:29:42;;;;;;;11.00;7.88;;;;;;;21.81;100.00;101231.66;5203800;28;20021;-71
2023/06/18 09:32:14;;;;;;;9.98;7.35;;;;;;;21.75;100.00;101238.06;5204895;28;20071;-71
2023/06/18 09:34:45;;;;;;;9.43;7.50;;;;;;;21.65;100.00;101240.50;5204613;28;20033;-71
2023/06/18 09:37:16;;;;;;;12.43;8.63;;;;;;;21.59;100.00;101242.25;5203610;28;20037;-71
2023/06/18 09:39:47;;;;;;;11.40;8.73;;;;;;;21.61;100.00;101240.13;5204612;28;20061;-71
2023/06/18 09:42:28;;;;;;;10.38;8.05;;;;;;;21.64;100.00;101239.69;5204535;28;20124;-71
2023/06/18 09:44:59;;;;;;;13.35;8.23;;;;;;;21.70;100.00;101243.38;5204503;28;20383;-71
2023/06/18 09:47:29;;;;;;;12.82;8.90;;;;;;;21.76;100.00;101247.91;5203292;28;20033;-71
2023/06/18 09:50:02;;;;;;;17.73;8.35;;;;;;;21.72;100.00;101238.50;5204389;28;20383;-71
2023/06/18 09:52:56;;;;;;;15.43;8.40;;;;;;;21.64;100.00;101236.13;5204541;28;20654;-71
2023/06/18 09:55:29;;;;;;;11.60;8.23;;;;;;;21.62;100.00;101236.31;5204089;28;20104;-71
2023/06/18 09:58:00;;;;;;;12.05;8.88;;;;;;;21.61;100.00;101226.47;5203488;28;20106;-71
2023/06/18 10:00:31;;;;;;;11.10;8.95;;;;;;;21.63;100.00;101221.59;5204429;28;20017;-71
2023/06/18 10:03:05;;;;;;;10.52;8.88;;;;;;;21.72;100.00;101216.66;5204530;28;20450;-71
2023/06/18 10:05:35;;;;;;;13.63;8.65;;;;;;;21.81;100.00;101219.91;5203864;28;20068;-71
2023/06/18 10:08:07;;;;;;;13.30;9.30;;;;;;;21.84;100.00;101222.16;5203682;28;20029;-71
2023/06/18 10:10:40;;;;;;;11.88;9.05;;;;;;;21.86;100.00;101226.34;5202397;28;20457;-71
2023/06/18 10:13:12;;;;;;;18.17;8.80;;;;;;;21.96;100.00;101225.78;5204001;28;20025;-71
2023/06/18 10:15:44;;;;;;;10.88;8.80;;;;;;;21.95;100.00;101219.50;5203227;28;20029;-71
2023/06/18 10:18:22;;;;;;;12.82;8.68;;;;;;;22.04;100.00;101219.16;5203629;28;20025;-71
2023/06/18 10:20:56;;;;;;;12.05;9.52;;;;;;;22.11;100.00;101225.38;5203549;28;20033;-71
2023/06/18 10:23:28;;;;;;;16.08;9.63;;;;;;;22.18;100.00;101226.09;5203598;28;20021;-71
2023/06/18 10:26:00;;;;;;;14.05;10.23;;;;;;;22.25;100.00;101221.41;5203078;28;20267;-71
2023/06/18 10:28:32;;;;;;;14.02;9.38;;;;;;;22.33;100.00;101221.03;5203632;28;20030;-71
2023/06/18 10:31:05;;;;;;;14.10;9.40;;;;;;;22.44;100.00;101224.84;5203523;28;20056;-71
2023/06/18 10:33:36;;;;;;;13.48;9.98;;;;;;;22.66;100.00;101216.91;5203751;28;20371;-71
2023/06/18 10:36:07;;;;;;;15.52;9.80;;;;;;;22.82;100.00;101210.72;5203279;28;20017;-71
2023/06/18 10:38:38;;;;;;;13.13;10.10;;;;;;;23.02;100.00;101210.38;5203178;28;20025;-71
2023/06/18 10:41:10;;;;;;;12.95;9.75;;;;;;;23.23;100.00;101206.19;5203414;28;20025;-71
2023/06/18 10:43:41;;;;;;;14.57;11.13;;;;;;;23.43;100.00;101203.84;5203175;28;20025;-71
2023/06/18 10:46:13;;;;;;;15.77;9.65;;;;;;;23.48;100.00;101211.34;5202944;28;20036;-71
2023/06/18 10:49:14;;;;;;;12.88;10.00;;;;;;;23.19;100.00;101205.00;5202994;28;20155;-71
2023/06/18 10:52:22;;;;;;;13.85;9.45;;;;;;;23.16;100.00;101205.50;5203481;28;20029;-71
2023/06/18 10:54:55;;;;;;;10.98;9.20;;;;;;;23.14;100.00;101199.41;5203087;28;20123;-71
2023/06/18 10:57:27;;;;;;;10.98;9.02;;;;;;;23.13;100.00;101195.03;5202638;28;20091;-71
2023/06/18 10:59:57;;;;;;;12.73;9.52;;;;;;;23.01;100.00;101195.03;5203368;28;20053;-71
2023/06/18 11:02:32;;;;;;;14.77;9.00;;;;;;;22.99;100.00;101189.81;5202898;28;20078;-71
2023/06/18 11:05:03;;;;;;;11.93;8.40;;;;;;;22.97;100.00;101189.22;5203278;28;20382;-71
2023/06/18 11:07:33;;;;;;;14.45;9.75;;;;;;;23.05;100.00;101195.41;5202099;28;20025;-71
2023/06/18 11:10:05;;;;;;;14.77;9.23;;;;;;;23.00;100.00;101186.00;5203016;28;20029;-71
2023/06/18 11:12:37;;;;;;;14.00;8.63;;;;;;;23.21;100.00;101192.75;5199275;28;20033;-71
2023/06/18 11:15:24;;;;;;;11.90;9.15;;;;;;;23.22;100.00;101183.47;5194554;28;20902;-71
2023/06/18 11:18:00;;;;;;;11.38;8.02;;;;;;;23.32;100.00;101180.09;5200986;28;20063;-71
2023/06/18 11:20:34;;;;;;;12.50;9.38;;;;;;;23.32;100.00;101176.53;5206638;28;20100;-71
2023/06/18 11:23:05;;;;;;;11.90;9.65;;;;;;;23.32;100.00;101177.34;5212542;28;20029;-71
2023/06/18 11:25:35;;;;;;;12.43;9.43;;;;;;;23.45;100.00;101171.63;5206264;28;20032;-71